• Join FlightAware (Why Join?)
  • Login
  • US Flag 
09:59PM EDT


 

Airport Tracker/Info


-or-


 

Live Flight TrackerFlight Track Log ✈ FLG3616 ✈ 29-Jun-2013 ✈ KDTW - KAZO

Flight Track Log - Related Links

Times and Time Zones

All times are in EDT time to prevent confusion due to time zone crossing. See the FLG3616 flight status page for this flight to view local times or setup timezone preferences in your user account.

Time Position Orientation Groundspeed Altitude Reporting Facility
EDT Latitude Longitude Course Direction KTS MPH feet Rate Location/Type
04:05PM 42.2058 -83.3556 276° West 163 188 1,300  Level Cleveland Center
04:05PM 42.1653 -83.3875 210° Southwest 220 253 4,000 2,820 Climbing Cleveland Center
04:07PM 42.1136 -83.4550 224° Southwest 275 316 6,800 2,820 Climbing Cleveland Center
04:08PM 42.2300 -83.8364 276° West  Level FlightAware Approximate
04:08PM 42.1069 -83.5556 265° West 296 341 9,800  Level Cleveland Center
04:09PM 42.2388 -83.9584 276° West  Level FlightAware Approximate
04:09PM 42.1461 -83.7283 287° West 351 404 11,400  Level Cleveland Center
04:10PM 42.2474 -84.0804 276° West  Level FlightAware Approximate
04:10PM 42.1781 -83.8561 289° West 356 410 12,000  Level Cleveland Center
04:11PM 42.2097 -83.9839 289° West 356 410 12,000  Level Cleveland Center
04:12PM 42.2453 -84.1231 289° West 362 417 12,000  Level Cleveland Center
04:13PM 42.2619 -84.2506 280° West 357 411 12,000 -120 Level Cleveland Center
04:14PM 42.2600 -84.3739 269° West 351 404 11,800 -600 Descending Cleveland Center
04:15PM 42.2597 -84.4533 270° West 334 384 11,000 -480 Descending Chicago Center
04:16PM 42.2564 -84.5997 268° West 328 377 11,000 -300 Level Chicago Center
04:17PM 42.2539 -84.7194 268° West 322 371 10,400 -840 Descending Chicago Center
04:18PM 42.2525 -84.8250 269° West 293 337 9,300 -1,080 Descending Chicago Center
04:19PM 42.2492 -84.9294 268° West 283 326 8,200 -1,020 Descending Chicago Center
04:20PM 42.2297 -85.0250 255° West 283 326 7,200 -1,140 Descending Chicago Center
04:21PM 42.2067 -85.1433 255° West 275 316 5,900 -1,140 Descending Chicago Center
04:22PM 42.1883 -85.2397 256° West 271 312 4,900 -900 Descending Chicago Center
04:23PM 42.1719 -85.3228 255° West 243 280 4,100 -840 Descending Chicago Center
04:24PM 42.1564 -85.4028 255° West 228 262 3,300 -720 Descending Chicago Center
04:25PM 42.1406 -85.4825 255° West 224 258 2,700 -600 Descending Chicago Center